Time;durP1;ratioP1;P1;durP2;ratioP2;P2;SDS_P1;SDS_P2;PMS_P1;PMS_P2;Temp;Humidity;BMP_temperature;BMP_pressure;BME280_temperature;BME280_humidity;BME280_pressure;Samples;Min_cycle;Max_cycle;Signal;HPM_P1;HPM_P2
2023/03/30 00:01:38;;;;;;;8.48;2.13;;;;;;;8.21;100.00;98918.28;5031899;28;20130;-85
2023/03/30 00:04:10;;;;;;;8.68;3.25;;;;;;;8.24;100.00;98923.22;5033844;28;20101;-86
2023/03/30 00:06:38;;;;;;;12.27;2.95;;;;;;;8.04;100.00;98902.59;5000053;28;20130;-83
2023/03/30 00:09:05;;;;;;;11.07;2.30;;;;;;;7.98;100.00;98914.13;5031959;28;20483;-84
2023/03/30 00:11:33;;;;;;;9.65;2.67;;;;;;;7.82;100.00;98907.31;5032607;28;20080;-83
2023/03/30 00:14:05;;;;;;;19.63;3.53;;;;;;;7.62;100.00;98901.94;5032530;28;20104;-85
2023/03/30 00:16:31;;;;;;;14.80;2.85;;;;;;;7.56;100.00;98912.63;5015997;28;20040;-83
2023/03/30 00:18:56;;;;;;;17.67;2.20;;;;;;;7.40;100.00;98911.13;5015938;28;20037;-84
2023/03/30 00:21:24;;;;;;;7.07;2.33;;;;;;;7.27;100.00;98906.56;5015489;28;20026;-86
2023/03/30 00:23:51;;;;;;;4.93;2.63;;;;;;;7.17;100.00;98901.59;4999828;28;20030;-83
2023/03/30 00:26:22;;;;;;;6.82;2.13;;;;;;;7.22;100.00;98909.00;5033265;28;20057;-84
2023/03/30 00:28:47;;;;;;;15.68;2.85;;;;;;;7.16;100.00;98902.59;4999091;28;20391;-84
2023/03/30 00:31:18;;;;;;;11.02;2.63;;;;;;;7.26;100.00;98908.41;5032904;28;20456;-85
2023/03/30 00:33:43;;;;;;;8.63;2.63;;;;;;;7.34;100.00;98909.25;5015784;28;20109;-85
2023/03/30 00:36:12;;;;;;;11.68;2.80;;;;;;;7.28;100.00;98905.53;5015676;28;20039;-85
2023/03/30 00:38:42;;;;;;;12.40;2.10;;;;;;;7.16;100.00;98904.47;5033236;28;20030;-87
2023/03/30 00:41:13;;;;;;;9.57;2.50;;;;;;;7.05;100.00;98906.66;4999046;28;20045;-84
2023/03/30 00:44:35;;;;;;;17.42;3.00;;;;;;;6.96;100.00;98915.03;5016074;28;20033;-85
2023/03/30 00:47:00;;;;;;;13.98;2.63;;;;;;;6.83;100.00;98899.78;5011436;28;20128;-83
2023/03/30 00:49:26;;;;;;;12.93;2.33;;;;;;;6.78;100.00;98905.72;5012232;28;20380;-83
2023/03/30 00:51:54;;;;;;;9.00;2.17;;;;;;;6.80;100.00;98901.00;5016137;28;20038;-83
2023/03/30 00:54:20;;;;;;;12.88;2.55;;;;;;;6.80;100.00;98900.16;5031880;28;20034;-84
2023/03/30 00:56:48;;;;;;;16.25;3.30;;;;;;;6.72;100.00;98911.84;5031505;28;20032;-83
2023/03/30 00:59:20;;;;;;;16.23;2.65;;;;;;;6.60;100.00;98916.91;5016708;28;20030;-83
2023/03/30 01:01:49;;;;;;;13.27;2.30;;;;;;;6.58;100.00;98900.22;4999240;28;20038;-85
2023/03/30 01:04:19;;;;;;;14.60;3.05;;;;;;;6.51;100.00;98898.53;5032084;28;20032;-83
2023/03/30 01:06:50;;;;;;;9.07;2.10;;;;;;;6.59;100.00;98901.91;4999946;28;20443;-84
2023/03/30 01:09:17;;;;;;;12.13;2.38;;;;;;;6.73;100.00;98910.00;5016349;28;20041;-86
2023/03/30 01:11:43;;;;;;;15.90;3.58;;;;;;;6.75;100.00;98906.09;4999989;28;20048;-83
2023/03/30 01:14:13;;;;;;;14.00;2.55;;;;;;;6.66;100.00;98893.09;5017650;28;20468;-85
2023/03/30 01:16:54;;;;;;;13.55;2.65;;;;;;;6.70;100.00;98910.41;5019896;28;20083;-86
2023/03/30 01:19:23;;;;;;;10.18;2.15;;;;;;;6.71;100.00;98909.38;5003991;28;20029;-87
2023/03/30 01:22:28;;;;;;;13.55;1.85;;;;;;;6.69;100.00;98906.06;5036658;28;20029;-84
2023/03/30 01:25:19;;;;;;;12.02;1.98;;;;;;;6.65;100.00;98902.13;5037658;28;20021;-87
2023/03/30 01:27:57;;;;;;;9.18;2.17;;;;;;;6.59;100.00;98904.56;5036176;28;20034;-83
2023/03/30 01:31:00;;;;;;;6.95;1.50;;;;;;;6.53;100.00;98908.00;5019461;28;20036;-88
2023/03/30 01:34:13;;;;;;;12.43;2.13;;;;;;;6.57;100.00;98898.59;5020066;28;20059;-84
2023/03/30 01:36:58;;;;;;;8.13;1.70;;;;;;;6.55;100.00;98899.81;5004717;28;20030;-85
2023/03/30 01:39:40;;;;;;;12.93;1.88;;;;;;;6.55;100.00;98892.63;5039459;28;20384;-87
2023/03/30 01:42:30;;;;;;;15.45;2.00;;;;;;;6.53;100.00;98900.00;5024071;28;20030;-85
2023/03/30 01:44:59;;;;;;;11.27;1.95;;;;;;;6.58;100.00;98892.22;5003533;28;20041;-85
2023/03/30 01:47:50;;;;;;;13.15;2.20;;;;;;;6.62;100.00;98895.34;5003214;28;20143;-85
2023/03/30 01:50:32;;;;;;;12.50;2.53;;;;;;;6.59;100.00;98893.91;5020307;28;20029;-84
2023/03/30 01:53:24;;;;;;;9.07;2.00;;;;;;;6.60;100.00;98887.53;5019982;28;20387;-86
2023/03/30 01:56:19;;;;;;;14.48;1.92;;;;;;;6.58;100.00;98889.56;5018863;28;20029;-82
2023/03/30 01:58:58;;;;;;;10.75;1.90;;;;;;;6.52;100.00;98882.34;5032242;28;20046;-88
2023/03/30 02:01:26;;;;;;;12.80;2.45;;;;;;;6.58;100.00;98884.22;5020007;28;20434;-88
2023/03/30 02:03:56;;;;;;;6.45;1.65;;;;;;;6.52;100.00;98885.00;5036009;28;20396;-84
2023/03/30 02:06:41;;;;;;;13.65;2.03;;;;;;;6.44;100.00;98885.16;5003248;28;20064;-84
2023/03/30 02:09:10;;;;;;;17.10;2.45;;;;;;;6.39;100.00;98879.56;5004738;28;20033;-85
2023/03/30 02:11:36;;;;;;;19.63;2.42;;;;;;;6.30;100.00;98870.09;5004634;28;20033;-85
2023/03/30 02:14:08;;;;;;;9.40;2.08;;;;;;;6.31;100.00;98869.88;5019082;28;20029;-83
2023/03/30 02:16:40;;;;;;;21.38;3.75;;;;;;;6.21;100.00;98864.03;5002768;28;20442;-86
2023/03/30 02:19:06;;;;;;;11.98;2.17;;;;;;;6.21;100.00;98865.91;5018496;28;20109;-88
2023/03/30 02:21:34;;;;;;;9.90;1.60;;;;;;;6.07;100.00;98848.97;5034517;28;20026;-85
2023/03/30 02:24:02;;;;;;;14.18;2.05;;;;;;;6.08;100.00;98856.75;5034892;28;20029;-83
2023/03/30 02:26:28;;;;;;;13.27;2.60;;;;;;;6.14;100.00;98860.53;5017886;28;20429;-86
2023/03/30 02:28:57;;;;;;;8.23;1.77;;;;;;;6.11;100.00;98853.72;5001987;28;20037;-87
2023/03/30 02:31:23;;;;;;;13.80;2.45;;;;;;;6.01;100.00;98844.41;5035370;28;20049;-84
2023/03/30 02:34:10;;;;;;;24.17;7.38;;;;;;;6.11;100.00;98855.53;5018814;28;20469;-88
2023/03/30 02:37:16;;;;;;;21.13;6.15;;;;;;;6.03;100.00;98853.03;5034709;28;20123;-86
2023/03/30 02:40:11;;;;;;;15.60;5.28;;;;;;;5.96;100.00;98850.31;5016076;28;21764;-86
2023/03/30 02:43:25;;;;;;;8.75;2.08;;;;;;;6.06;100.00;98855.31;5034644;28;20029;-87
2023/03/30 02:46:23;;;;;;;17.63;2.45;;;;;;;6.04;100.00;98858.19;5017287;28;20041;-83
2023/03/30 02:49:11;;;;;;;10.07;1.73;;;;;;;6.16;100.00;98858.47;5017974;28;20396;-88
2023/03/30 02:51:46;;;;;;;9.93;2.05;;;;;;;6.14;100.00;98848.00;5033529;28;20041;-82
2023/03/30 02:54:23;;;;;;;11.45;2.88;;;;;;;6.21;100.00;98849.88;5001623;28;20034;-83
2023/03/30 02:57:02;;;;;;;14.35;2.63;;;;;;;6.18;100.00;98847.59;5017501;28;20399;-87
2023/03/30 02:59:47;;;;;;;13.80;2.10;;;;;;;6.18;100.00;98844.94;5033565;28;20049;-86
2023/03/30 03:02:18;;;;;;;7.85;3.33;;;;;;;6.19;100.00;98835.91;5017550;28;20075;-86
2023/03/30 03:04:51;;;;;;;8.70;2.42;;;;;;;6.31;100.00;98839.69;5001164;28;20049;-84
2023/03/30 03:07:23;;;;;;;8.50;2.03;;;;;;;6.42;100.00;98836.47;5002267;28;20519;-85
2023/03/30 03:09:54;;;;;;;12.23;2.13;;;;;;;6.52;100.00;98836.94;5000944;28;20037;-82
2023/03/30 03:12:22;;;;;;;15.10;2.60;;;;;;;6.52;100.00;98830.78;5032976;28;20034;-85
2023/03/30 03:14:50;;;;;;;11.65;2.20;;;;;;;6.65;100.00;98830.03;5017249;28;20037;-85
2023/03/30 03:17:21;;;;;;;12.25;1.55;;;;;;;6.81;100.00;98829.69;5017215;28;20417;-86
2023/03/30 03:19:54;;;;;;;9.98;2.13;;;;;;;6.99;100.00;98832.66;5016731;28;20195;-87
2023/03/30 03:22:25;;;;;;;7.85;2.03;;;;;;;7.13;100.00;98822.81;5033454;28;20090;-87
2023/03/30 03:24:50;;;;;;;15.85;3.38;;;;;;;7.29;100.00;98829.66;5032856;28;20060;-85
2023/03/30 03:27:19;;;;;;;14.75;1.77;;;;;;;7.42;100.00;98832.34;5034479;28;20380;-86
2023/03/30 03:29:48;;;;;;;12.25;2.88;;;;;;;7.51;100.00;98816.13;5034233;28;20052;-85
2023/03/30 03:32:19;;;;;;;13.75;1.98;;;;;;;7.65;100.00;98823.97;4999999;28;20130;-83
2023/03/30 03:34:48;;;;;;;8.10;2.20;;;;;;;7.75;100.00;98833.44;4985660;28;20091;-84
2023/03/30 03:37:14;;;;;;;8.50;3.00;;;;;;;7.82;100.00;98834.25;4998127;28;20120;-84
2023/03/30 03:39:42;;;;;;;10.80;1.92;;;;;;;7.89;100.00;98827.88;5016567;28;20120;-86
2023/03/30 03:42:09;;;;;;;9.30;2.13;;;;;;;8.05;100.00;98823.16;5016706;28;20091;-88
2023/03/30 03:44:39;;;;;;;5.18;1.50;;;;;;;7.95;100.00;98796.81;5016547;28;20029;-88
2023/03/30 03:47:12;;;;;;;5.35;1.10;;;;;;;8.25;100.00;98823.94;5018025;28;20032;-87
2023/03/30 03:49:38;;;;;;;9.32;1.42;;;;;;;8.28;100.00;98828.06;5034033;28;20033;-85
2023/03/30 03:52:05;;;;;;;7.65;1.38;;;;;;;8.32;100.00;98824.75;5017379;28;20036;-85
2023/03/30 03:54:34;;;;;;;4.97;1.90;;;;;;;8.27;100.00;98823.75;5042408;28;20033;-84
2023/03/30 03:57:00;;;;;;;14.95;1.58;;;;;;;8.25;100.00;98821.25;5040205;28;20483;-83
2023/03/30 03:59:26;;;;;;;2.55;0.98;;;;;;;8.40;100.00;98831.78;5034666;28;20025;-87
2023/03/30 04:01:52;;;;;;;15.15;2.60;;;;;;;8.38;100.00;98807.84;5017786;28;20057;-84
2023/03/30 04:04:18;;;;;;;13.15;2.38;;;;;;;8.55;100.00;98820.84;5016823;28;20065;-85
2023/03/30 04:06:44;;;;;;;12.88;2.00;;;;;;;8.59;100.00;98816.69;5032753;28;20073;-86
2023/03/30 04:09:12;;;;;;;6.35;1.42;;;;;;;8.70;100.00;98831.28;5016838;28;20026;-86
2023/03/30 04:11:38;;;;;;;14.63;3.00;;;;;;;8.75;100.00;98829.63;5033666;28;20063;-84
2023/03/30 04:14:03;;;;;;;6.63;1.38;;;;;;;8.76;100.00;98815.22;5032316;28;20374;-85
2023/03/30 04:16:29;;;;;;;12.07;1.65;;;;;;;8.87;100.00;98824.44;5033606;28;20030;-89
2023/03/30 04:18:56;;;;;;;15.75;1.85;;;;;;;8.94;100.00;98824.41;5032454;28;20034;-83
2023/03/30 04:21:22;;;;;;;17.65;2.75;;;;;;;8.92;100.00;98813.09;5032294;28;20369;-85
2023/03/30 04:23:48;;;;;;;11.10;1.30;;;;;;;8.94;100.00;98817.19;5032373;28;20465;-86
2023/03/30 04:26:14;;;;;;;5.50;1.42;;;;;;;8.99;100.00;98816.56;5032235;28;20034;-85
2023/03/30 04:28:40;;;;;;;6.22;1.10;;;;;;;8.95;100.00;98823.38;5015799;28;20040;-84
2023/03/30 04:31:11;;;;;;;2.97;1.10;;;;;;;8.86;100.00;98819.28;5015866;28;20069;-86
2023/03/30 04:33:44;;;;;;;5.18;0.90;;;;;;;8.84;100.00;98818.66;5000365;28;20159;-87
2023/03/30 04:36:16;;;;;;;12.43;1.77;;;;;;;8.76;100.00;98817.91;5017049;28;20030;-83
2023/03/30 04:38:43;;;;;;;7.80;1.70;;;;;;;8.80;100.00;98815.59;4999267;28;20052;-86
2023/03/30 04:41:12;;;;;;;10.63;1.55;;;;;;;8.76;100.00;98809.84;4999662;28;20033;-85
2023/03/30 04:43:39;;;;;;;2.03;0.93;;;;;;;8.84;100.00;98814.16;5016208;28;20111;-88
2023/03/30 04:46:04;;;;;;;4.00;1.35;;;;;;;8.83;100.00;98817.03;4999599;28;20380;-87
2023/03/30 04:48:30;;;;;;;10.13;1.88;;;;;;;8.79;100.00;98817.47;5032709;28;20041;-84
2023/03/30 04:50:56;;;;;;;3.70;1.02;;;;;;;8.87;100.00;98829.81;5035687;28;20029;-85
2023/03/30 04:53:22;;;;;;;8.40;2.00;;;;;;;8.82;100.00;98816.22;5035976;28;20041;-85
2023/03/30 04:55:49;;;;;;;9.75;1.67;;;;;;;8.90;100.00;98831.25;5035819;28;20033;-84
2023/03/30 04:58:15;;;;;;;6.15;1.55;;;;;;;8.90;100.00;98834.75;5003157;28;20033;-84
2023/03/30 05:00:41;;;;;;;6.28;1.33;;;;;;;8.91;100.00;98819.47;5003602;28;20111;-88
2023/03/30 05:03:07;;;;;;;5.90;1.75;;;;;;;8.93;100.00;98818.22;5036506;28;20468;-86
2023/03/30 05:05:33;;;;;;;8.10;1.30;;;;;;;9.01;100.00;98827.88;5019128;28;20029;-87
2023/03/30 05:07:59;;;;;;;2.65;1.10;;;;;;;9.00;100.00;98832.44;5019743;28;20087;-88
2023/03/30 05:10:25;;;;;;;5.22;2.22;;;;;;;8.95;100.00;98837.59;5037050;28;20037;-87
2023/03/30 05:12:54;;;;;;;1.63;0.90;;;;;;;8.83;100.00;98822.41;5035882;28;20430;-89
2023/03/30 05:15:20;;;;;;;4.15;1.42;;;;;;;8.97;100.00;98829.34;5036283;28;20380;-87
2023/03/30 05:17:46;;;;;;;3.13;1.35;;;;;;;8.91;100.00;98827.50;5036401;28;20068;-86
2023/03/30 05:20:14;;;;;;;5.28;2.20;;;;;;;8.94;100.00;98838.63;5019350;28;20060;-84
2023/03/30 05:22:40;;;;;;;4.68;1.30;;;;;;;8.99;100.00;98835.31;5036160;28;20125;-85
2023/03/30 05:25:06;;;;;;;1.98;1.17;;;;;;;8.90;100.00;98837.41;5036843;28;20033;-84
2023/03/30 05:27:32;;;;;;;1.80;0.80;;;;;;;8.90;100.00;98831.25;5019675;28;20472;-89
2023/03/30 05:29:57;;;;;;;3.40;1.20;;;;;;;8.91;100.00;98835.56;5036075;28;20044;-84
2023/03/30 05:32:23;;;;;;;1.55;0.75;;;;;;;8.96;100.00;98846.47;5035990;28;20033;-87
2023/03/30 05:34:49;;;;;;;5.90;1.20;;;;;;;9.00;100.00;98855.75;5035533;28;20083;-86
2023/03/30 05:37:15;;;;;;;7.50;1.05;;;;;;;9.15;100.00;98858.97;5035861;28;20040;-87
2023/03/30 05:39:40;;;;;;;6.97;1.50;;;;;;;9.20;100.00;98867.19;5036617;28;20456;-90
2023/03/30 05:42:06;;;;;;;2.95;1.00;;;;;;;8.97;100.00;98850.78;5037004;28;20120;-90
2023/03/30 05:44:32;;;;;;;4.75;1.48;;;;;;;9.01;100.00;98855.50;5035597;28;20029;-88
2023/03/30 05:46:58;;;;;;;4.43;1.77;;;;;;;9.10;100.00;98863.31;5003109;28;20509;-91
2023/03/30 05:49:24;;;;;;;7.78;1.70;;;;;;;9.15;100.00;98869.69;5018953;28;20029;-90
2023/03/30 05:51:50;;;;;;;3.53;1.52;;;;;;;9.13;100.00;98861.06;5002619;28;20045;-89
2023/03/30 05:54:17;;;;;;;4.72;1.10;;;;;;;9.21;100.00;98874.22;5036152;28;20064;-88
2023/03/30 05:56:43;;;;;;;5.85;1.75;;;;;;;9.29;100.00;98875.84;5035597;28;20029;-85
2023/03/30 05:59:09;;;;;;;5.50;1.55;;;;;;;9.34;100.00;98884.06;5036662;28;20040;-87
2023/03/30 06:01:36;;;;;;;8.63;1.50;;;;;;;9.42;100.00;98883.81;5001405;28;20025;-87
2023/03/30 06:04:02;;;;;;;11.85;2.13;;;;;;;9.53;100.00;98873.44;5035049;28;20082;-87
2023/03/30 06:06:28;;;;;;;14.20;1.98;;;;;;;9.54;100.00;98888.50;5035469;28;20037;-86
2023/03/30 06:08:54;;;;;;;8.00;1.52;;;;;;;9.59;100.00;98896.72;5037690;28;20040;-88
2023/03/30 06:11:19;;;;;;;19.45;2.40;;;;;;;9.55;100.00;98892.81;5021827;28;20033;-85
2023/03/30 06:13:45;;;;;;;4.97;1.52;;;;;;;9.63;100.00;98895.22;5043992;28;20083;-84
2023/03/30 06:16:11;;;;;;;4.63;1.50;;;;;;;9.56;100.00;98900.66;5025829;28;20032;-85
2023/03/30 06:18:37;;;;;;;10.80;1.58;;;;;;;9.55;100.00;98908.91;5034666;28;20049;-84
2023/03/30 06:21:07;;;;;;;12.65;2.15;;;;;;;9.55;100.00;98911.59;5018543;28;20038;-91
2023/03/30 06:23:33;;;;;;;7.57;1.63;;;;;;;9.53;100.00;98914.50;5034395;28;20075;-86
2023/03/30 06:25:59;;;;;;;7.00;1.35;;;;;;;9.57;100.00;98920.25;5018050;28;20080;-85
2023/03/30 06:28:26;;;;;;;13.95;1.75;;;;;;;9.50;100.00;98919.47;5034682;28;20036;-89
2023/03/30 06:30:52;;;;;;;7.03;1.45;;;;;;;9.51;100.00;98927.31;5034521;28;20032;-88
2023/03/30 06:33:18;;;;;;;11.07;1.83;;;;;;;9.44;100.00;98919.28;5034191;28;20059;-86
2023/03/30 06:35:49;;;;;;;11.98;1.80;;;;;;;9.37;100.00;98923.03;5017903;28;20049;-87
2023/03/30 06:38:15;;;;;;;8.05;1.58;;;;;;;9.32;100.00;98920.19;5034022;28;20025;-85
2023/03/30 06:40:41;;;;;;;5.32;1.70;;;;;;;9.36;100.00;98930.25;5001690;28;20040;-86
2023/03/30 06:43:08;;;;;;;14.52;2.20;;;;;;;9.36;100.00;98940.16;5033930;28;20058;-85
2023/03/30 06:45:33;;;;;;;4.30;1.23;;;;;;;9.32;100.00;98942.44;5018209;28;20491;-85
2023/03/30 06:47:59;;;;;;;9.20;1.27;;;;;;;9.32;100.00;98942.44;5034613;28;20029;-87
2023/03/30 06:50:25;;;;;;;9.35;1.40;;;;;;;9.39;100.00;98958.50;5034358;28;20033;-89
2023/03/30 06:52:51;;;;;;;1.30;0.88;;;;;;;9.36;100.00;98957.06;5034339;28;20041;-87
2023/03/30 06:55:16;;;;;;;3.47;0.90;;;;;;;9.25;100.00;98955.06;5034947;28;20084;-86
2023/03/30 06:57:42;;;;;;;7.43;1.20;;;;;;;9.21;100.00;98957.34;5033178;28;20384;-87
2023/03/30 07:00:12;;;;;;;10.00;2.13;;;;;;;9.37;100.00;98963.28;5033485;28;20029;-84
2023/03/30 07:02:39;;;;;;;2.85;0.85;;;;;;;9.47;100.00;98963.63;5017932;28;20159;-84
2023/03/30 07:05:06;;;;;;;8.40;2.00;;;;;;;9.49;100.00;98956.19;5001159;28;20026;-83
2023/03/30 07:07:32;;;;;;;8.32;1.65;;;;;;;9.68;100.00;98962.50;5034764;28;20029;-84
2023/03/30 07:09:58;;;;;;;5.13;1.02;;;;;;;9.85;100.00;98968.22;5017162;28;20124;-86
2023/03/30 07:12:24;;;;;;;17.63;2.35;;;;;;;9.98;100.00;98964.66;5016427;28;20473;-87
2023/03/30 07:14:49;;;;;;;4.45;1.73;;;;;;;10.19;100.00;98971.50;5033343;28;20025;-85
2023/03/30 07:17:15;;;;;;;13.32;2.50;;;;;;;10.29;100.00;98967.34;5017021;28;20021;-84
2023/03/30 07:19:41;;;;;;;5.10;1.48;;;;;;;10.52;100.00;98968.63;5033496;28;20030;-85
2023/03/30 07:22:07;;;;;;;7.88;2.03;;;;;;;10.53;100.00;98981.00;5035288;28;20033;-84
2023/03/30 07:24:32;;;;;;;10.35;1.60;;;;;;;10.52;100.00;98987.44;5025116;28;20052;-83
2023/03/30 07:26:58;;;;;;;9.90;2.25;;;;;;;10.41;100.00;98962.09;5035370;28;20031;-87
2023/03/30 07:29:27;;;;;;;5.55;1.88;;;;;;;10.41;100.00;98980.91;5035152;28;20034;-88
2023/03/30 07:31:55;;;;;;;2.50;1.00;;;;;;;10.48;100.00;98989.75;5034134;28;20025;-89
2023/03/30 07:34:21;;;;;;;19.08;3.00;;;;;;;10.64;100.00;98983.00;5018061;28;20361;-89
2023/03/30 07:36:47;;;;;;;14.93;2.60;;;;;;;10.76;100.00;98972.34;5016871;28;20103;-84
2023/03/30 07:39:13;;;;;;;7.47;1.52;;;;;;;11.20;100.00;98986.59;5033177;28;20029;-88
2023/03/30 07:41:39;;;;;;;12.23;2.15;;;;;;;11.51;100.00;98987.47;5033067;28;20357;-85
2023/03/30 07:44:04;;;;;;;17.42;2.22;;;;;;;11.78;100.00;98999.59;5033173;28;20072;-84
2023/03/30 07:46:30;;;;;;;7.50;1.90;;;;;;;12.02;100.00;98997.03;5032827;28;20036;-89
2023/03/30 07:48:56;;;;;;;13.20;3.22;;;;;;;12.05;100.00;99010.84;5033490;28;20456;-89
2023/03/30 07:51:22;;;;;;;8.30;2.05;;;;;;;12.31;100.00;98995.38;5034236;28;20025;-84
2023/03/30 07:53:47;;;;;;;9.25;2.08;;;;;;;11.95;100.00;99004.38;5016553;28;20095;-86
2023/03/30 07:56:13;;;;;;;12.23;2.28;;;;;;;12.31;100.00;99011.53;5032856;28;20083;-88
2023/03/30 07:58:39;;;;;;;10.82;2.15;;;;;;;13.42;100.00;98995.59;5032905;28;20072;-85
2023/03/30 08:01:04;;;;;;;10.30;1.75;;;;;;;13.23;100.00;98989.47;5033877;28;20049;-87
2023/03/30 08:03:30;;;;;;;3.40;1.77;;;;;;;12.98;100.00;99003.19;5034014;28;20435;-84
2023/03/30 08:05:59;;;;;;;5.25;1.90;;;;;;;12.69;100.00;98988.75;5033080;28;20034;-82
2023/03/30 08:08:26;;;;;;;10.43;3.00;;;;;;;12.73;100.00;99003.44;5032708;28;20099;-80
2023/03/30 08:10:59;;;;;;;15.25;2.08;;;;;;;13.35;100.00;99006.50;5032550;28;20048;-79
2023/03/30 08:13:26;;;;;;;13.90;2.30;;;;;;;13.78;100.00;98999.00;5016223;28;20034;-79
2023/03/30 08:15:53;;;;;;;9.93;2.30;;;;;;;13.99;100.00;99011.03;5032427;28;20519;-78
2023/03/30 08:18:19;;;;;;;11.52;2.47;;;;;;;15.59;100.00;99007.97;5033297;28;20069;-79
2023/03/30 08:20:49;;;;;;;18.65;3.85;;;;;;;16.56;100.00;99011.72;5016032;28;20112;-78
2023/03/30 08:23:24;;;;;;;10.60;1.58;;;;;;;15.27;100.00;99015.91;5030749;28;20041;-82
2023/03/30 08:25:51;;;;;;;11.52;1.98;;;;;;;14.46;100.00;99022.44;4999215;28;20087;-78
2023/03/30 08:28:22;;;;;;;9.70;2.00;;;;;;;13.84;100.00;99019.69;5032343;28;20033;-79
2023/03/30 08:30:48;;;;;;;16.05;3.13;;;;;;;13.54;100.00;99028.75;5031804;28;20041;-78
2023/03/30 08:33:14;;;;;;;13.43;2.28;;;;;;;13.56;100.00;99032.06;4999930;28;20033;-78
2023/03/30 08:35:43;;;;;;;13.57;2.17;;;;;;;13.72;100.00;99026.97;5015814;28;20357;-78
2023/03/30 08:38:09;;;;;;;12.80;2.72;;;;;;;13.75;100.00;99030.00;5032212;28;20079;-80
2023/03/30 08:40:39;;;;;;;18.23;3.70;;;;;;;13.53;100.00;99035.22;5015535;28;20025;-78
2023/03/30 08:43:36;;;;;;;17.27;2.65;;;;;;;13.34;100.00;99047.25;5032105;28;20026;-78
2023/03/30 08:46:02;;;;;;;17.02;2.75;;;;;;;13.33;100.00;99023.97;5031426;28;20091;-78
2023/03/30 08:48:32;;;;;;;7.65;2.83;;;;;;;13.75;100.00;99027.31;5033125;28;20037;-82
2023/03/30 08:51:07;;;;;;;7.65;2.47;;;;;;;13.76;100.00;99020.88;5031710;28;20030;-78
2023/03/30 08:53:36;;;;;;;22.75;3.53;;;;;;;13.57;100.00;99036.38;5031405;28;20033;-78
2023/03/30 08:56:23;;;;;;;12.50;2.95;;;;;;;14.11;100.00;99035.31;5031439;28;20447;-78
2023/03/30 08:59:13;;;;;;;10.40;2.42;;;;;;;14.51;100.00;99046.88;4999310;28;20029;-78
2023/03/30 09:02:04;;;;;;;7.68;2.30;;;;;;;16.41;100.00;99038.75;5027817;28;20088;-79
2023/03/30 09:04:56;;;;;;;8.95;2.47;;;;;;;16.35;100.00;99042.47;5016163;28;20125;-78
2023/03/30 09:07:27;;;;;;;11.73;2.38;;;;;;;15.87;100.00;99044.09;5031695;28;20107;-78
2023/03/30 09:09:54;;;;;;;12.55;3.17;;;;;;;14.95;100.00;99044.41;5031297;28;20060;-78
2023/03/30 09:12:36;;;;;;;7.53;2.67;;;;;;;14.23;100.00;99033.38;5031950;28;20048;-78
2023/03/30 09:15:22;;;;;;;16.85;4.40;;;;;;;13.88;100.00;99055.13;5032681;28;20132;-78
2023/03/30 09:18:15;;;;;;;13.60;2.03;;;;;;;14.12;100.00;99050.47;5032484;28;20038;-78
2023/03/30 09:20:43;;;;;;;15.35;2.33;;;;;;;16.02;100.00;99042.38;5026379;28;20046;-78
2023/03/30 09:23:12;;;;;;;16.25;2.67;;;;;;;18.12;100.00;99015.97;5031838;28;20486;-79
2023/03/30 09:25:52;;;;;;;17.00;4.47;;;;;;;18.29;96.18;99027.44;5031658;28;20090;-78
2023/03/30 09:28:21;;;;;;;13.40;3.67;;;;;;;18.34;93.88;99040.25;5031917;28;20033;-79
2023/03/30 09:30:52;;;;;;;18.35;3.45;;;;;;;17.09;97.19;99031.75;5031546;28;20045;-79
2023/03/30 09:33:46;;;;;;;16.90;3.35;;;;;;;17.38;95.84;99023.22;5014802;28;20396;-78
2023/03/30 09:36:35;;;;;;;11.55;2.78;;;;;;;17.38;93.94;99042.25;5018426;28;20037;-79
2023/03/30 09:39:08;;;;;;;12.85;2.90;;;;;;;19.81;81.82;99024.91;5034743;28;20095;-78
2023/03/30 09:41:59;;;;;;;9.65;2.42;;;;;;;20.92;75.57;99026.44;5035229;28;20036;-79
2023/03/30 09:44:37;;;;;;;14.30;3.60;;;;;;;23.07;63.18;99043.75;5036026;28;20068;-79
2023/03/30 09:47:20;;;;;;;7.95;2.13;;;;;;;21.57;61.62;99035.13;5035052;28;20713;-79
2023/03/30 09:49:46;;;;;;;12.85;3.75;;;;;;;21.90;62.44;99036.09;5018508;28;20123;-80
2023/03/30 09:52:20;;;;;;;10.57;2.70;;;;;;;21.55;61.68;99039.25;5035699;28;20502;-76
2023/03/30 09:54:46;;;;;;;16.38;3.40;;;;;;;19.67;67.39;99030.16;5002354;28;20029;-79
2023/03/30 09:57:21;;;;;;;14.18;2.75;;;;;;;18.28;71.09;99020.34;5018286;28;20039;-78
2023/03/30 09:59:47;;;;;;;10.48;2.45;;;;;;;18.86;68.39;99025.63;5018251;28;20037;-78
2023/03/30 10:02:15;;;;;;;13.05;3.75;;;;;;;19.94;65.06;99029.75;5018319;28;20387;-78
2023/03/30 10:04:52;;;;;;;7.88;2.80;;;;;;;21.47;55.27;99030.59;5034999;28;20033;-78
2023/03/30 10:07:28;;;;;;;16.13;3.50;;;;;;;22.26;53.50;99029.38;5033974;28;20033;-78
2023/03/30 10:09:55;;;;;;;14.50;3.78;;;;;;;22.32;50.45;99025.47;5034527;28;20476;-79
2023/03/30 10:12:23;;;;;;;10.60;4.50;;;;;;;19.73;55.57;99041.84;5017933;28;20099;-78
2023/03/30 10:14:55;;;;;;;8.23;1.90;;;;;;;17.13;66.50;99032.03;4985617;28;20042;-78
2023/03/30 10:17:24;;;;;;;8.93;2.45;;;;;;;15.71;74.30;99033.06;5018196;28;20037;-78
2023/03/30 10:20:11;;;;;;;12.85;3.95;;;;;;;17.06;73.21;99048.56;5017615;28;20029;-78
2023/03/30 10:22:47;;;;;;;12.18;2.50;;;;;;;20.42;57.11;99040.97;5032789;28;20029;-78
2023/03/30 10:25:17;;;;;;;8.25;1.80;;;;;;;21.54;53.07;99038.47;5033075;28;20028;-78
2023/03/30 10:27:45;;;;;;;8.80;1.75;;;;;;;22.49;49.80;99031.25;5015531;28;20025;-81
2023/03/30 10:30:17;;;;;;;7.05;1.88;;;;;;;22.52;49.14;99022.44;4999438;28;20038;-81
2023/03/30 10:32:45;;;;;;;5.40;2.17;;;;;;;22.98;46.36;99018.16;5015759;28;20030;-78
2023/03/30 10:35:17;;;;;;;8.00;1.98;;;;;;;22.73;47.44;99022.94;5033311;28;20033;-78
2023/03/30 10:37:46;;;;;;;4.53;1.67;;;;;;;23.25;46.53;99020.94;5017545;28;20033;-81
2023/03/30 10:40:21;;;;;;;6.70;1.95;;;;;;;23.32;44.88;99009.59;5033893;28;20026;-78
2023/03/30 10:42:50;;;;;;;6.53;1.85;;;;;;;23.39;44.64;99012.78;5033520;28;20475;-78
2023/03/30 10:45:20;;;;;;;5.68;1.92;;;;;;;23.72;44.77;99012.69;5017319;28;20029;-81
2023/03/30 10:47:52;;;;;;;6.45;2.00;;;;;;;23.92;43.14;99012.28;5033035;28;20028;-78
2023/03/30 10:50:40;;;;;;;7.43;2.75;;;;;;;22.88;46.58;99010.06;5035094;28;20026;-78
2023/03/30 10:53:22;;;;;;;6.38;1.50;;;;;;;23.06;44.95;99022.16;5033386;28;20039;-78
2023/03/30 10:56:06;;;;;;;3.63;1.23;;;;;;;19.91;50.46;99021.34;5033807;28;20464;-79
2023/03/30 10:58:32;;;;;;;6.38;1.90;;;;;;;18.12;55.83;99000.47;5034644;28;20502;-78
2023/03/30 11:01:22;;;;;;;6.20;1.73;;;;;;;17.69;60.81;99026.13;5032970;28;20049;-80
2023/03/30 11:03:56;;;;;;;9.48;1.95;;;;;;;17.87;60.64;99022.16;5033693;28;20484;-78
2023/03/30 11:06:37;;;;;;;7.28;2.33;;;;;;;18.67;58.79;99022.59;5000819;28;20033;-80
2023/03/30 11:09:09;;;;;;;9.13;1.80;;;;;;;18.96;58.94;99019.34;5030648;28;20063;-78
2023/03/30 11:11:48;;;;;;;4.97;2.33;;;;;;;19.65;57.05;99005.03;5033516;28;20095;-78
2023/03/30 11:14:18;;;;;;;10.52;2.15;;;;;;;22.52;48.57;99016.94;5032877;28;20270;-80
2023/03/30 11:17:24;;;;;;;3.70;1.63;;;;;;;23.51;44.09;99005.97;5033532;28;20038;-78
2023/03/30 11:19:54;;;;;;;5.80;1.67;;;;;;;24.05;42.67;98998.81;5006240;28;20463;-77
2023/03/30 11:22:27;;;;;;;5.97;1.92;;;;;;;24.50;41.56;99004.44;5000161;28;20064;-78
2023/03/30 11:24:55;;;;;;;4.35;1.48;;;;;;;25.11;39.56;99008.44;5033397;28;20452;-78
2023/03/30 11:27:29;;;;;;;9.20;2.10;;;;;;;23.01;42.68;98965.47;5033136;28;20053;-79
2023/03/30 11:29:57;;;;;;;7.07;1.65;;;;;;;20.72;47.35;99000.09;5016113;28;20136;-78
2023/03/30 11:32:56;;;;;;;9.70;2.55;;;;;;;19.17;51.65;98992.91;5034309;28;20112;-78
2023/03/30 11:35:38;;;;;;;8.90;2.25;;;;;;;17.30;58.16;98985.69;5031578;28;20128;-78
2023/03/30 11:38:12;;;;;;;6.30;2.10;;;;;;;16.82;63.54;98993.00;5016298;28;20022;-78
2023/03/30 11:40:45;;;;;;;8.43;2.55;;;;;;;20.48;53.06;98984.44;5032760;28;20033;-78
2023/03/30 11:43:12;;;;;;;8.32;2.30;;;;;;;22.79;46.96;98990.78;5000770;28;20033;-78
2023/03/30 11:46:15;;;;;;;7.38;2.30;;;;;;;24.09;44.11;98986.94;5032850;28;20041;-80
2023/03/30 11:48:47;;;;;;;8.23;1.50;;;;;;;24.59;41.01;98986.09;5033210;28;20112;-78
2023/03/30 11:51:35;;;;;;;4.47;1.58;;;;;;;24.04;41.90;98989.78;5033144;28;20034;-78